ESSD

Borlange Airport

Sweden
METAR ESSD 241150Z AUTO 00000KT 9999 FEW070/// SCT200/// M07/M11 Q1039
Observed Flight Rules
Feb-24 @ 11:50 UTC (34 minutes ago) Visual Flight Rules
Wind Visibility Clouds
Calm 10,000+ meters
  • Few at 7,000' AGL
  • Scattered at 20,000' AGL
Temperatures Readings
Current -7°C / 19°F
Dewpoint -11°C / 12°F
Humidity 73%
Altimeter 30.68" Hg
Pressure 1039 hPa
Elevation 161
METAR ESSD 241150Z AUTO 00000KT 9999 FEW070/// SCT200/// M07/M11 Q1039
Observed Flight Rules
Feb-24 @ 11:50 UTC
(34 minutes ago)
VFR
Wind Visibility
Calm 10,000+ meters
Clouds
  • Few at 7,000' AGL
  • Scattered at 20,000' AGL
Temperature Dewpoint
-7°C / 19°F -11°C / 12°F
Humidity Altimeter Pressure
73% 30.68" Hg 1039 hPa